x

Norfolk, Va (44059) Weather Station

11:50pm - Wed 16th Apr 2014 All times are EDT. -4 hours from GMT.

  • Wind
    4mph, 9mph gusts
  • Air Temp 43°f
  • Sea Pressure 1032mb
  • Norfolk, Va
  • Norfolk, Va

More Historic Weather Station data

Upgrade to MSW Pro to gain access to the past 30 days of data for over 8000 Wavebouys and Weather Stations around the globe.

Join Pro

Comparision Forecast

View Surf forecast
   
Wed 04/16 11:50pm 4 9 mph 1032mb - 43f
11:40pm 4 9 mph 1032mb - 43f
11:30pm 4 7 mph 1032mb - 43f
11:20pm 4 7 mph 1032mb - 43f
11:10pm 4 7 mph 1032mb - 43f
11:00pm 4 7 mph 1031.9mb 56f 43f
10:50pm 4 9 mph 1031.9mb - 43f
10:40pm 4 9 mph 1031.9mb - 43f
10:30pm 4 9 mph 1031.9mb - 43f
10:20pm 4 7 mph 1031.9mb - 43f
10:10pm 4 11 mph 1031.8mb - 43f
10:00pm 4 9 mph 1031.8mb 56f 43f
9:50pm 4 9 mph 1031.8mb - 43f
9:40pm 4 9 mph 1031.7mb - 43f
9:30pm 4 11 mph 1031.5mb - 43f
9:20pm 4 9 mph 1031.5mb - 43f
9:10pm 4 7 mph 1031.3mb - 43f
9:00pm 4 11 mph 1031.2mb 56f 43f
8:50pm 4 9 mph 1031mb - 43f
8:40pm 7 11 mph 1030.8mb - 43f
8:30pm 7 13 mph 1030.7mb - 43f
8:20pm 7 11 mph 1030.6mb - 43f
8:10pm 9 13 mph 1030.5mb - 43f
8:00pm 7 13 mph 1030.3mb 56f 44f
7:50pm 7 11 mph 1030.3mb - 43f
7:40pm 9 11 mph 1030.1mb - 44f
7:30pm 7 11 mph 1030.1mb - 44f
7:20pm 9 11 mph 1029.9mb - 44f
7:10pm 9 16 mph 1029.8mb - 45f
7:00pm 11 22 mph 1029.8mb 57f 45f
6:50pm 16 22 mph 1029.7mb - 46f
6:40pm 16 22 mph 1029.6mb - 46f
6:30pm 16 20 mph 1029.6mb - 46f
6:20pm 13 22 mph 1029.4mb - 46f
6:10pm 11 18 mph 1029.3mb - 46f
6:00pm 13 18 mph 1029.3mb 57f 46f
5:50pm 16 22 mph 1029.2mb - 45f
5:40pm 18 22 mph 1029.2mb - 45f
5:30pm 16 22 mph 1029.1mb - 45f
5:20pm 16 22 mph 1028.9mb - 45f
5:10pm 16 22 mph 1028.9mb - 44f
5:00pm 16 25 mph 1028.8mb 57f 44f
4:50pm 13 20 mph 1028.8mb - 44f
4:40pm 16 25 mph 1028.8mb - 44f
4:30pm 16 22 mph 1028.8mb - 44f
4:20pm 16 22 mph 1028.8mb - 44f
4:10pm 13 18 mph 1028.8mb - 44f
4:00pm 18 25 mph 1028.7mb 57f 44f
3:50pm 16 22 mph 1028.6mb - 44f
3:40pm 16 25 mph 1028.7mb - 44f
3:30pm 18 29 mph 1028.7mb - 44f
3:20pm 18 22 mph 1028.8mb - 44f
3:10pm 16 22 mph 1028.8mb - 44f
3:00pm 16 22 mph 1028.9mb 57f 43f
2:50pm 16 22 mph 1029mb - 43f
2:40pm 16 25 mph 1029mb - 43f
2:30pm 16 20 mph 1029mb - 43f
2:20pm 16 20 mph 1029mb - 43f
2:10pm 13 20 mph 1028.8mb - 43f
2:00pm 13 22 mph 1028.8mb 57f 43f
1:50pm 16 22 mph 1028.8mb - 43f
1:40pm 13 20 mph 1028.6mb - 43f
1:30pm 16 22 mph 1028.7mb - 42f
1:20pm 16 22 mph 1028.7mb - 42f
1:10pm 16 22 mph 1028.6mb - 42f
1:00pm 16 25 mph 1028.6mb 56f 42f
12:50pm 13 22 mph 1028.5mb - 42f
12:40pm 16 22 mph 1028.4mb - 42f
12:30pm 16 25 mph 1028.5mb - 42f
12:20pm 16 22 mph 1028.5mb - 42f
12:10pm 16 25 mph 1028.4mb - 41f
12:00pm 16 25 mph 1028.4mb 56f 41f
11:50am 18 27 mph 1028.3mb - 41f
11:40am 16 25 mph 1028.4mb - 41f
11:30am 16 25 mph 1028.4mb - 40f
11:20am 16 25 mph 1028.4mb - 40f
11:10am 16 25 mph 1028.4mb - 40f
11:00am 18 27 mph 1028.1mb 56f 40f
10:50am 18 27 mph 1028mb - 40f
10:40am 20 27 mph 1027.9mb - 39f
10:30am 18 27 mph 1027.9mb - 39f
10:20am 18 25 mph 1027.8mb - 39f
10:10am 20 29 mph 1027.4mb - 39f
10:00am 20 27 mph 1027.3mb 56f 39f
9:50am 18 25 mph 1027.1mb - 39f
9:40am 20 27 mph 1026.8mb - 39f
9:30am 20 27 mph 1026.6mb - 38f
9:20am 20 25 mph 1026.3mb - 38f
9:10am 20 27 mph 1026mb - 38f
9:00am 20 27 mph 1025.7mb 56f 38f
8:50am 20 31 mph 1025.5mb - 38f
8:40am 22 29 mph 1025.3mb - 38f
8:30am 22 29 mph 1025.1mb - 38f
8:20am 22 29 mph 1024.9mb - 38f
8:10am 20 29 mph 1024.7mb - 38f
8:00am 18 27 mph 1024.6mb 56f 38f
7:50am 22 31 mph 1024.3mb - 38f
7:40am 22 31 mph 1024.1mb - 38f
7:30am 20 29 mph 1023.9mb - 38f
7:20am 22 34 mph 1023.6mb - -
7:10am 20 27 mph 1023.3mb - -
7:00am 20 36 mph 1023.1mb 55f -
6:50am 22 31 mph 1022.9mb - -
6:40am 18 25 mph 1022.8mb - -
6:30am 18 27 mph 1022.5mb - -
6:20am 18 27 mph 1022.1mb - -
6:10am 18 27 mph 1021.8mb - -
6:00am 18 25 mph 1021.6mb 56f -
5:50am 18 25 mph 1021.4mb - -
5:40am 20 29 mph 1021.1mb - -
5:30am 20 25 mph 1020.8mb - -
5:20am 20 29 mph 1020.5mb - -
5:10am 20 27 mph 1020.2mb - -
5:00am 22 29 mph 1020mb 56f -
4:50am 22 31 mph 1019.8mb - -
4:40am 22 31 mph 1019.6mb - -
4:30am 22 29 mph 1019.3mb - -
4:20am 25 31 mph 1019mb - -
4:10am 22 29 mph 1018.6mb - -
4:00am 22 31 mph 1018.3mb 56f -
3:50am 22 31 mph 1018mb - -
3:40am 25 31 mph 1017.9mb - -
3:30am 22 31 mph 1017.7mb - -
3:20am 22 31 mph 1017.4mb - -
3:10am 22 29 mph 1017mb - -
3:00am 20 31 mph 1017mb 56f -
2:50am 20 27 mph 1016.8mb - -
2:40am 20 27 mph 1016.8mb - -
2:30am 20 29 mph 1016.7mb - -
2:20am 20 29 mph 1016.1mb - -
2:10am 20 31 mph 1015.9mb - -
2:00am 20 29 mph 1015.9mb 57f -
1:50am 22 31 mph 1015.4mb - -
1:40am 22 31 mph 1015.4mb - -
1:30am 20 29 mph 1014.9mb - -
1:20am 20 31 mph 1014.7mb - -
1:10am 18 27 mph 1015.2mb - -
1:00am 22 31 mph 1014.7mb 57f -
12:50am 20 29 mph 1014.9mb - -
12:40am 22 34 mph 1014.2mb - -
12:30am 22 31 mph 1013.5mb - -
12:20am 22 34 mph 1013.9mb - -
12:10am 27 36 mph 1014.5mb - -
12:00am 27 38 mph 1014.4mb 58f -
Tue 04/15 11:50pm 25 34 mph 1013.5mb - -
11:40pm 27 36 mph 1012.5mb - -
11:30pm 29 40 mph 1012.3mb - -
11:20pm 27 34 mph 1012.5mb - -
11:10pm 20 34 mph 1012.5mb - -
11:00pm 20 27 mph 1011.2mb 58f -
10:50pm 25 34 mph 1011.3mb - -
10:40pm 25 31 mph 1011.1mb - -
10:30pm 27 36 mph 1010.3mb - -
10:20pm 27 40 mph 1010.2mb - -
10:10pm 27 38 mph 1010.1mb - -
10:00pm 27 38 mph 1009.9mb 58f -
9:50pm 27 38 mph 1009.5mb - -
9:40pm 27 38 mph 1009.2mb - -
9:30pm 25 34 mph 1009.4mb - -
9:20pm 25 36 mph 1009.3mb - -
9:10pm 27 36 mph 1008.5mb - -
9:00pm 25 36 mph 1008.3mb 59f -
8:50pm 22 34 mph 1007.8mb - -
3:00pm 9 11 mph 1003.3mb 59f 71f
2:50pm 7 11 mph 1003.4mb - 71f
2:40pm 9 13 mph 1003.6mb - 70f
2:30pm 7 11 mph 1003.9mb - 70f
2:20pm 9 11 mph 1004mb - 69f
2:10pm 9 16 mph 1004.3mb - 69f
2:00pm 9 11 mph 1004.2mb 61f 69f
1:50pm 9 13 mph 1004.5mb - 69f
1:40pm 9 13 mph 1004.5mb - 68f
1:30pm 9 13 mph 1004.6mb - 68f
1:20pm 9 13 mph 1004.4mb - 67f
1:10pm 9 13 mph 1004.5mb - 67f
1:00pm 9 16 mph 1004.6mb 60f 67f
12:50pm 11 16 mph 1004.7mb - 66f
12:40pm 9 18 mph 1004.8mb - 66f
12:30pm 9 13 mph 1004.8mb - 65f
12:20pm 9 11 mph 1004.9mb - 65f
12:10pm 7 11 mph 1004.7mb - 64f
12:00pm 9 16 mph 1004.5mb 60f 64f
11:50am 7 11 mph 1005.3mb - 65f
11:40am 4 9 mph 1005.5mb - 65f
11:30am 9 13 mph 1006.2mb - 65f
11:20am 9 13 mph 1006.3mb - 65f
11:10am 9 16 mph 1006.4mb - 65f
11:00am 11 18 mph 1006.7mb 60f 66f
10:50am 11 22 mph 1006.4mb - 68f
10:40am 13 27 mph 1005.5mb - 70f
10:30am 13 20 mph 1005.8mb - 70f
10:20am 16 22 mph 1005.8mb - 70f
10:10am 16 22 mph 1005.8mb - 71f
10:00am 16 25 mph 1005.6mb 59f 71f
9:50am 18 25 mph 1005.6mb - 71f
9:40am 16 27 mph 1005.5mb - 71f
9:30am 16 25 mph 1005.5mb - 71f
9:20am 16 25 mph 1005.6mb - 70f
9:10am 16 25 mph 1005.9mb - 70f
9:00am 16 22 mph 1006mb 59f 70f
8:50am 18 25 mph 1006.2mb - 70f
8:40am 16 22 mph 1006.5mb - 70f
8:30am 16 22 mph 1006.5mb - 70f
8:20am 13 22 mph 1006.5mb - 70f
8:10am 13 20 mph 1006.5mb - 70f
8:00am 13 20 mph 1006.5mb 60f 69f
7:50am 13 20 mph 1006.6mb - 69f
7:40am 13 22 mph 1006.7mb - 69f
7:30am 16 22 mph 1006.8mb - 69f
7:20am 13 20 mph 1006.8mb - 69f
7:10am 13 20 mph 1006.9mb - 69f
7:00am 11 18 mph 1007mb 59f 69f
6:50am 13 25 mph 1007mb - 69f
6:40am 13 22 mph 1007mb - 69f
6:30am 13 18 mph 1007mb - 69f
6:20am 13 20 mph 1007mb - 69f
6:10am 13 20 mph 1007.2mb - 69f
6:00am 11 18 mph 1007.3mb 59f 69f
5:50am 13 20 mph 1007.4mb - 69f
5:40am 13 22 mph 1007.5mb - 69f
5:30am 13 22 mph 1007.5mb - 69f
5:20am 13 22 mph 1007.6mb - 69f
5:10am 13 20 mph 1007.8mb - 69f
5:00am 16 25 mph 1007.9mb 59f 69f
4:50am 16 22 mph 1008mb - 69f
4:40am 13 22 mph 1008.1mb - 69f
4:30am 13 22 mph 1008.2mb - 69f
4:20am 11 18 mph 1008.2mb - 68f
4:10am 11 18 mph 1008.3mb - 68f
4:00am 11 16 mph 1008.5mb 60f 68f
3:50am 13 20 mph 1008.7mb - 69f
3:40am 13 20 mph 1008.8mb - 68f
3:30am 13 18 mph 1009mb - 68f
3:20am 11 18 mph 1009mb - 68f
3:10am 11 18 mph 1009.2mb - 68f
3:00am 13 20 mph 1009.4mb 60f 68f
2:50am 11 18 mph 1009.6mb - 68f
2:40am 11 18 mph 1009.7mb - 68f
2:30am 13 18 mph 1009.9mb - 69f
2:20am 13 20 mph 1009.9mb - 69f
2:10am 13 20 mph 1010mb - 69f
2:00am 11 18 mph 1010.1mb 60f 69f
1:50am 11 18 mph 1009.9mb - 69f
1:40am 11 18 mph 1009.9mb - 69f
1:30am 11 18 mph 1010.1mb - 69f
1:20am 11 20 mph 1010.2mb - 69f
1:10am 13 20 mph 1010.3mb - 69f
1:00am 13 22 mph 1010.4mb 60f 68f
12:50am 13 20 mph 1010.5mb - 68f
12:40am 13 20 mph 1010.5mb - 68f
12:30am 11 16 mph 1010.6mb - 68f
12:20am 13 20 mph 1010.8mb - 69f
12:10am 9 16 mph 1011mb - 69f
12:00am 11 20 mph 1011.4mb 60f 69f
Mon 04/14 11:50pm 13 20 mph 1011.5mb - 69f
11:40pm 11 18 mph 1011.7mb - 69f
11:30pm 13 20 mph 1011.8mb - 69f
11:20pm 11 20 mph 1011.8mb - 69f
11:10pm 11 16 mph 1011.7mb - 69f
11:00pm 11 16 mph 1011.8mb 60f 69f
10:50pm 11 16 mph 1012.1mb - 69f
10:40pm 9 18 mph 1012.2mb - 69f
10:30pm 11 18 mph 1012.5mb - 69f
10:20pm 11 16 mph 1012.7mb - 69f
10:10pm 11 18 mph 1012.7mb - 69f
10:00pm 13 18 mph 1012.7mb 60f 70f
9:50pm 13 18 mph 1012.7mb - 70f
9:40pm 13 18 mph 1012.7mb - 70f
9:30pm 16 22 mph 1012.6mb - 70f
9:20pm 13 22 mph 1012.5mb - 70f
9:10pm 13 20 mph 1012.4mb - 71f
9:00pm 13 20 mph 1012.3mb 60f 71f
8:50pm 13 22 mph 1012.3mb - 71f
8:40pm 13 20 mph 1012.4mb - 71f
8:30pm 13 20 mph 1012.5mb - 72f
8:20pm 13 20 mph 1012.3mb - 72f
8:10pm 13 20 mph 1012.1mb - 73f
8:00pm 16 22 mph 1012.1mb 60f 73f
7:50pm 13 20 mph 1012.1mb - 73f
7:40pm 13 20 mph 1012.1mb - 74f
7:30pm 13 22 mph 1012.1mb - 74f
7:20pm 13 18 mph 1012mb - 75f
7:10pm 11 18 mph 1012mb - 75f
7:00pm 13 18 mph 1012mb 60f 76f
6:50pm 11 18 mph 1012.3mb - 76f
6:40pm 13 20 mph 1012.4mb - 76f
6:30pm 13 20 mph 1012.4mb - 76f
6:20pm 13 20 mph 1012.4mb - 76f
6:10pm 11 18 mph 1012.4mb - 76f
6:00pm 11 16 mph 1012.3mb 60f 77f
5:50pm 16 20 mph 1012.4mb - 77f
5:40pm 11 16 mph 1012.4mb - 77f
5:30pm 13 20 mph 1012.5mb - 77f
5:20pm 11 18 mph 1012.5mb - 78f
5:10pm 13 20 mph 1012.6mb - 78f
5:00pm 13 22 mph 1012.6mb 60f 78f
4:50pm 13 20 mph 1012.7mb - 78f
4:40pm 11 18 mph 1012.7mb - 78f
4:30pm 13 25 mph 1012.9mb - 78f
4:20pm 13 22 mph 1013.1mb - 78f
4:10pm 13 20 mph 1013.3mb - 78f
4:00pm 13 20 mph 1013.4mb 60f 77f
3:50pm 13 20 mph 1013.5mb - 77f
3:40pm 13 20 mph 1013.7mb - 77f
3:30pm 11 18 mph 1013.8mb - 77f
3:20pm 13 20 mph 1014mb - 77f
3:10pm 13 18 mph 1014.1mb - 76f
3:00pm 13 18 mph 1014.4mb 60f 76f
2:50pm 13 20 mph 1014.5mb - 76f
2:40pm 16 20 mph 1014.7mb - 76f
2:30pm 16 25 mph 1014.9mb - 76f
2:20pm 13 22 mph 1015mb - 76f
2:10pm 13 22 mph 1015.2mb - 75f
2:00pm 16 22 mph 1015.3mb 60f 75f
1:50pm 18 27 mph 1015.5mb - 74f
1:40pm 16 27 mph 1015.6mb - 74f
1:30pm 16 27 mph 1015.7mb - 74f
1:20pm 16 22 mph 1015.8mb - 74f
1:10pm 16 25 mph 1016mb - 74f
1:00pm 16 25 mph 1016.2mb 60f 73f
12:50pm 16 22 mph 1016.4mb - 73f
12:40pm 16 25 mph 1016.6mb - 73f
12:30pm 16 22 mph 1016.8mb - 73f
12:20pm 18 25 mph 1017.1mb - 73f
12:10pm 16 22 mph 1017.1mb - 73f
12:00pm 13 25 mph 1017.3mb 60f 73f
11:50am 13 25 mph 1017.4mb - 72f
11:40am 13 20 mph 1017.5mb - 72f
11:30am 13 22 mph 1017.7mb - 72f
11:20am 11 25 mph 1017.9mb - 71f
11:10am 13 22 mph 1018.1mb - 71f
11:00am 13 22 mph 1018mb 60f 71f
10:50am 16 22 mph 1017.9mb - 71f
10:40am 16 22 mph 1017.9mb - 70f
10:30am 13 20 mph 1017.9mb - 70f
10:20am 13 20 mph 1017.9mb - 69f
10:10am 16 22 mph 1018mb - 69f
10:00am 16 22 mph 1018.3mb 60f 68f
9:50am 13 20 mph 1018.3mb - 68f
9:40am 11 16 mph 1018.2mb - 67f
9:30am 11 20 mph 1018.1mb - 67f
9:20am 13 22 mph 1018.2mb - 67f
9:10am 13 18 mph 1018.3mb - 67f
9:00am 13 18 mph 1018.3mb 60f 67f
8:50am 11 18 mph 1018.4mb - 66f
8:40am 13 20 mph 1018.6mb - 66f
8:30am 9 16 mph 1018.6mb - 66f
8:20am 9 16 mph 1018.4mb - 65f
8:10am 9 13 mph 1018.3mb - 65f
8:00am 9 16 mph 1018.3mb 59f 64f
7:50am 9 13 mph 1018.4mb - 64f
7:40am 7 11 mph 1018.4mb - 64f
7:30am 7 11 mph 1018.4mb - 63f
7:20am 7 11 mph 1018.3mb - 63f
7:10am 7 11 mph 1018.1mb - 63f
7:00am 9 13 mph 1018mb 60f 63f
6:50am 11 13 mph 1017.9mb - 63f
6:40am 9 13 mph 1017.8mb - 63f
6:30am 9 13 mph 1017.8mb - 63f
6:20am 9 13 mph 1017.7mb - 64f
6:10am 9 11 mph 1017.7mb - 64f
6:00am 9 13 mph 1017.8mb 60f 64f
5:50am 9 11 mph 1017.8mb - 63f
5:40am 7 11 mph 1017.9mb - 63f
5:30am 7 11 mph 1017.9mb - 63f
5:20am 7 11 mph 1017.9mb - 63f
5:10am 7 11 mph 1017.9mb - 63f
5:00am 7 11 mph 1017.9mb 59f 63f
4:50am 9 13 mph 1017.9mb - 64f
4:40am 9 13 mph 1017.9mb - 64f
4:30am 9 18 mph 1017.9mb - 64f
4:20am 9 16 mph 1017.9mb - 64f
4:10am 9 13 mph 1018mb - 64f
4:00am 9 13 mph 1018.1mb 59f 64f
3:50am 9 13 mph 1018.3mb - 64f
3:40am 9 13 mph 1018.4mb - 63f
3:30am 9 13 mph 1018.5mb - 63f
3:20am 7 11 mph 1018.5mb - 63f
3:10am 9 11 mph 1018.6mb - 64f
3:00am 7 11 mph 1018.7mb 59f 64f
2:50am 9 11 mph 1018.9mb - 64f
2:40am 9 16 mph 1019mb - 64f
2:30am 9 13 mph 1018.9mb - 64f
2:20am 9 13 mph 1018.9mb - 64f
2:10am 9 13 mph 1019.1mb - 64f
2:00am 9 13 mph 1019.3mb 59f 64f
1:50am 9 13 mph 1019.5mb - 65f
1:40am 9 13 mph 1019.6mb - 65f
1:30am 9 16 mph 1019.7mb - 65f
1:20am 11 16 mph 1019.6mb - 65f
1:10am 11 13 mph 1019.5mb - 65f
1:00am 9 13 mph 1019.5mb 60f 66f
12:50am 11 16 mph 1019.4mb - 66f
12:40am 9 13 mph 1019.3mb - 66f
12:30am 9 13 mph 1019.3mb - 66f
12:20am 11 16 mph 1019.2mb - 66f
12:10am 11 18 mph 1019.1mb - 66f
12:00am 13 18 mph 1019.1mb 60f 67f
Sun 04/13 11:50pm 13 22 mph 1019.1mb - 67f
11:40pm 13 20 mph 1019.2mb - 67f
11:30pm 11 18 mph 1019.3mb - 67f
11:20pm 13 22 mph 1019.4mb - 67f
11:10pm 13 20 mph 1019.4mb - 67f
11:00pm 13 20 mph 1019.4mb 60f 68f
10:50pm 13 18 mph 1019.1mb - 68f
10:40pm 13 18 mph 1019.2mb - 68f
10:30pm 13 20 mph 1019.3mb - 68f
10:20pm 13 18 mph 1019.2mb - 69f
10:10pm 11 18 mph 1019.2mb - 69f
10:00pm 13 22 mph 1019.1mb 60f 69f
9:50pm 13 20 mph 1019mb - 69f
9:40pm 13 22 mph 1018.9mb - 70f
9:30pm 16 22 mph 1018.9mb - 70f
9:20pm 16 22 mph 1018.8mb - 70f
9:10pm 16 22 mph 1018.9mb - 71f
9:00pm 13 22 mph 1019mb 61f 71f
8:50pm 13 22 mph 1018.9mb - 71f
8:40pm 11 22 mph 1018.8mb - 72f
8:30pm 13 20 mph 1018.7mb - 72f
8:20pm 13 18 mph 1018.6mb - 72f
8:10pm 13 20 mph 1018.6mb - 73f
8:00pm 13 22 mph 1018.5mb 61f 73f
7:50pm 16 22 mph 1018.5mb - 73f
7:40pm 16 22 mph 1018.4mb - 74f
7:30pm 18 25 mph 1018.3mb - 74f
7:20pm 13 25 mph 1018.2mb - 75f
7:10pm 16 22 mph 1018.2mb - 75f
7:00pm 13 20 mph 1018.3mb 61f 76f
6:50pm 16 22 mph 1018.4mb - 76f
6:40pm 16 20 mph 1018.4mb - 77f
6:30pm 16 22 mph 1018.4mb - 78f
6:20pm 13 20 mph 1018.3mb - 78f
6:10pm 13 20 mph 1018.3mb - 78f
6:00pm 13 18 mph 1018.3mb 61f 78f
5:50pm 11 20 mph 1018.4mb - 79f
5:40pm 11 18 mph 1018.4mb - 79f
5:30pm 13 20 mph 1018.4mb - 78f
5:20pm 13 18 mph 1018.4mb - 79f
5:10pm 16 20 mph 1018.4mb - 79f
5:00pm 13 20 mph 1018.3mb 62f 79f
4:50pm 13 22 mph 1018.4mb - 79f
4:40pm 13 20 mph 1018.4mb - 79f
4:30pm 11 20 mph 1018.5mb - 79f
4:20pm 13 22 mph 1018.6mb - 79f
4:10pm 13 20 mph 1018.5mb - 79f
4:00pm 13 18 mph 1018.7mb 62f 79f
3:50pm 13 22 mph 1018.9mb - 79f
3:40pm 11 18 mph 1019mb - 79f
3:30pm 13 20 mph 1019.1mb - 79f
3:20pm 11 18 mph 1019.3mb - 79f
3:10pm 11 22 mph 1019.4mb - 79f
3:00pm 13 22 mph 1019.5mb 62f 79f
2:50pm 11 18 mph 1019.5mb - 78f
2:40pm 11 18 mph 1019.6mb - 78f
2:30pm 11 18 mph 1019.7mb - 78f
2:20pm 9 16 mph 1019.8mb - 78f
2:10pm 11 16 mph 1019.8mb - 78f
2:00pm 13 20 mph 1019.9mb 62f 78f
1:50pm 11 18 mph 1020mb - 78f
1:40pm 13 20 mph 1020.1mb - 77f
1:30pm 11 18 mph 1020.2mb - 77f
1:20pm 11 16 mph 1020.6mb - 77f
1:10pm 11 18 mph 1020.9mb - 76f
1:00pm 13 18 mph 1021.1mb 61f 76f
12:50pm 11 18 mph 1021.1mb - 76f
12:40pm 11 20 mph 1021.3mb - 76f
12:30pm 11 20 mph 1021.5mb - 75f
12:20pm 11 20 mph 1021.4mb - 75f
12:10pm 9 16 mph 1021.5mb - 74f
12:00pm 11 16 mph 1021.6mb 61f 74f
11:50am 9 16 mph 1021.6mb - 74f
11:40am 11 20 mph 1021.8mb - 73f
11:30am 9 13 mph 1021.8mb - 73f
11:20am 11 18 mph 1022mb - 73f
11:10am 9 16 mph 1022.1mb - 73f
11:00am 11 16 mph 1022.3mb 60f 72f
10:50am 11 18 mph 1022.4mb - 72f
10:40am 13 18 mph 1022.5mb - 71f
10:30am 11 16 mph 1022.5mb - 71f
10:20am 11 18 mph 1022.5mb - 71f
10:10am 13 18 mph 1022.6mb - 70f
10:00am 13 18 mph 1022.8mb 60f 70f
9:50am 9 16 mph 1022.8mb - 69f
9:40am 11 16 mph 1022.8mb - 69f
9:30am 9 13 mph 1022.8mb - 68f
9:20am 11 16 mph 1022.9mb - 68f
9:10am 11 16 mph 1022.9mb - 67f
9:00am 9 13 mph 1022.8mb 59f 66f
8:50am 9 13 mph 1022.8mb - 66f
8:40am 9 13 mph 1022.9mb - 65f
8:30am 7 11 mph 1022.9mb - 64f
8:20am 9 13 mph 1022.9mb - 64f
8:10am 9 11 mph 1022.8mb - 63f
8:00am 9 13 mph 1022.8mb 59f 63f
7:50am 7 11 mph 1022.8mb - 62f
7:40am 7 9 mph 1022.7mb - 61f
7:30am 4 7 mph 1022.5mb - 61f
7:20am 7 9 mph 1022.3mb - 61f
7:10am 7 9 mph 1022.2mb - 61f
7:00am 7 9 mph 1022.1mb 59f 61f
6:50am 7 9 mph 1022mb - 61f
6:40am 4 7 mph 1021.9mb - 61f
6:30am 4 7 mph 1021.7mb - 61f
6:20am 7 9 mph 1021.6mb - 61f
6:10am 7 9 mph 1021.5mb - 61f
6:00am 7 9 mph 1021.4mb 59f 61f
5:50am 7 9 mph 1021.4mb - 61f
5:40am 7 9 mph 1021.2mb - 61f
5:30am 7 9 mph 1021.1mb - 61f
5:20am 7 9 mph 1021.1mb - 61f
5:10am 7 9 mph 1021mb - 61f
5:00am 7 9 mph 1021mb 59f 61f
4:50am 7 9 mph 1021.1mb - 61f
4:40am 7 9 mph 1021.1mb - 61f